sensor_id;sensor_type;location;lat;lon;timestamp;P1;durP1;ratioP1;P2;durP2;ratioP2
8397;SDS011;4236;54.504;9.588;2022-08-21T00:01:41;7.40;;;6.57;;
8397;SDS011;4236;54.504;9.588;2022-08-21T00:04:09;7.80;;;6.77;;
8397;SDS011;4236;54.504;9.588;2022-08-21T00:06:46;8.90;;;6.83;;
8397;SDS011;4236;54.504;9.588;2022-08-21T00:09:14;8.70;;;7.90;;
8397;SDS011;4236;54.504;9.588;2022-08-21T00:11:41;8.57;;;7.60;;
8397;SDS011;4236;54.504;9.588;2022-08-21T00:14:09;9.97;;;7.50;;
8397;SDS011;4236;54.504;9.588;2022-08-21T00:16:38;12.37;;;8.50;;
8397;SDS011;4236;54.504;9.588;2022-08-21T00:19:06;6.93;;;6.43;;
8397;SDS011;4236;54.504;9.588;2022-08-21T00:21:34;8.83;;;6.93;;
8397;SDS011;4236;54.504;9.588;2022-08-21T00:24:04;11.63;;;7.30;;
8397;SDS011;4236;54.504;9.588;2022-08-21T00:26:33;7.30;;;6.70;;
8397;SDS011;4236;54.504;9.588;2022-08-21T00:29:02;11.87;;;8.30;;
8397;SDS011;4236;54.504;9.588;2022-08-21T00:31:30;7.53;;;6.90;;
8397;SDS011;4236;54.504;9.588;2022-08-21T00:33:59;11.27;;;7.80;;
8397;SDS011;4236;54.504;9.588;2022-08-21T00:36:27;9.37;;;8.37;;
8397;SDS011;4236;54.504;9.588;2022-08-21T00:38:54;8.40;;;7.57;;
8397;SDS011;4236;54.504;9.588;2022-08-21T00:41:23;11.40;;;8.47;;
8397;SDS011;4236;54.504;9.588;2022-08-21T00:44:03;9.30;;;8.40;;
8397;SDS011;4236;54.504;9.588;2022-08-21T00:46:31;7.80;;;7.23;;
8397;SDS011;4236;54.504;9.588;2022-08-21T00:48:58;12.57;;;8.60;;
8397;SDS011;4236;54.504;9.588;2022-08-21T00:51:28;9.90;;;8.90;;
8397;SDS011;4236;54.504;9.588;2022-08-21T00:54:04;9.03;;;8.20;;
8397;SDS011;4236;54.504;9.588;2022-08-21T00:56:45;10.07;;;9.17;;
8397;SDS011;4236;54.504;9.588;2022-08-21T00:59:16;17.07;;;8.90;;
8397;SDS011;4236;54.504;9.588;2022-08-21T01:01:44;9.47;;;8.50;;
8397;SDS011;4236;54.504;9.588;2022-08-21T01:04:13;10.83;;;9.73;;
8397;SDS011;4236;54.504;9.588;2022-08-21T01:06:42;10.93;;;8.83;;
8397;SDS011;4236;54.504;9.588;2022-08-21T01:09:10;9.70;;;8.80;;
8397;SDS011;4236;54.504;9.588;2022-08-21T01:11:38;16.67;;;10.30;;
8397;SDS011;4236;54.504;9.588;2022-08-21T01:14:09;11.67;;;8.97;;
8397;SDS011;4236;54.504;9.588;2022-08-21T01:16:38;10.87;;;9.77;;
8397;SDS011;4236;54.504;9.588;2022-08-21T01:19:07;11.27;;;9.80;;
8397;SDS011;4236;54.504;9.588;2022-08-21T01:21:38;10.93;;;9.90;;
8397;SDS011;4236;54.504;9.588;2022-08-21T01:24:06;12.50;;;11.20;;
8397;SDS011;4236;54.504;9.588;2022-08-21T01:26:34;11.70;;;10.53;;
8397;SDS011;4236;54.504;9.588;2022-08-21T01:29:04;13.07;;;11.00;;
8397;SDS011;4236;54.504;9.588;2022-08-21T01:31:36;15.50;;;11.63;;
8397;SDS011;4236;54.504;9.588;2022-08-21T01:34:05;12.93;;;11.73;;
8397;SDS011;4236;54.504;9.588;2022-08-21T01:36:33;15.50;;;12.00;;
8397;SDS011;4236;54.504;9.588;2022-08-21T01:39:03;13.13;;;11.80;;
8397;SDS011;4236;54.504;9.588;2022-08-21T01:41:32;15.03;;;12.07;;
8397;SDS011;4236;54.504;9.588;2022-08-21T01:43:59;12.23;;;11.00;;
8397;SDS011;4236;54.504;9.588;2022-08-21T01:46:28;16.80;;;12.40;;
8397;SDS011;4236;54.504;9.588;2022-08-21T01:48:56;13.23;;;11.80;;
8397;SDS011;4236;54.504;9.588;2022-08-21T01:51:24;14.57;;;11.30;;
8397;SDS011;4236;54.504;9.588;2022-08-21T01:53:51;12.67;;;11.47;;
8397;SDS011;4236;54.504;9.588;2022-08-21T01:56:20;17.17;;;13.77;;
8397;SDS011;4236;54.504;9.588;2022-08-21T01:58:49;13.10;;;11.87;;
8397;SDS011;4236;54.504;9.588;2022-08-21T02:01:16;17.00;;;13.40;;
8397;SDS011;4236;54.504;9.588;2022-08-21T02:03:44;15.03;;;12.90;;
8397;SDS011;4236;54.504;9.588;2022-08-21T02:06:12;16.07;;;12.57;;
8397;SDS011;4236;54.504;9.588;2022-08-21T02:08:44;16.03;;;13.80;;
8397;SDS011;4236;54.504;9.588;2022-08-21T02:11:11;15.07;;;11.97;;
8397;SDS011;4236;54.504;9.588;2022-08-21T02:13:40;13.43;;;12.10;;
8397;SDS011;4236;54.504;9.588;2022-08-21T02:16:08;13.90;;;11.27;;
8397;SDS011;4236;54.504;9.588;2022-08-21T02:18:36;12.10;;;11.10;;
8397;SDS011;4236;54.504;9.588;2022-08-21T02:21:04;13.70;;;12.30;;
8397;SDS011;4236;54.504;9.588;2022-08-21T02:23:32;14.23;;;12.87;;
8397;SDS011;4236;54.504;9.588;2022-08-21T02:26:00;17.50;;;14.37;;
8397;SDS011;4236;54.504;9.588;2022-08-21T02:28:30;12.80;;;11.50;;
8397;SDS011;4236;54.504;9.588;2022-08-21T02:30:59;16.10;;;14.40;;
8397;SDS011;4236;54.504;9.588;2022-08-21T02:33:27;14.90;;;12.63;;
8397;SDS011;4236;54.504;9.588;2022-08-21T02:35:56;18.07;;;15.93;;
8397;SDS011;4236;54.504;9.588;2022-08-21T02:38:26;15.27;;;13.70;;
8397;SDS011;4236;54.504;9.588;2022-08-21T02:40:56;14.03;;;12.83;;
8397;SDS011;4236;54.504;9.588;2022-08-21T02:43:24;20.43;;;14.40;;
8397;SDS011;4236;54.504;9.588;2022-08-21T02:45:54;22.70;;;17.43;;
8397;SDS011;4236;54.504;9.588;2022-08-21T02:48:24;15.37;;;13.80;;
8397;SDS011;4236;54.504;9.588;2022-08-21T02:50:55;16.70;;;15.00;;
8397;SDS011;4236;54.504;9.588;2022-08-21T02:53:24;18.73;;;15.87;;
8397;SDS011;4236;54.504;9.588;2022-08-21T02:55:52;18.80;;;14.50;;
8397;SDS011;4236;54.504;9.588;2022-08-21T02:58:23;16.47;;;14.77;;
8397;SDS011;4236;54.504;9.588;2022-08-21T03:00:52;18.30;;;16.40;;
8397;SDS011;4236;54.504;9.588;2022-08-21T03:03:21;17.40;;;14.80;;
8397;SDS011;4236;54.504;9.588;2022-08-21T03:05:50;19.07;;;17.20;;
8397;SDS011;4236;54.504;9.588;2022-08-21T03:08:18;17.63;;;15.80;;
8397;SDS011;4236;54.504;9.588;2022-08-21T03:10:50;21.00;;;18.23;;
8397;SDS011;4236;54.504;9.588;2022-08-21T03:13:19;19.27;;;17.37;;
8397;SDS011;4236;54.504;9.588;2022-08-21T03:15:47;20.00;;;17.23;;
8397;SDS011;4236;54.504;9.588;2022-08-21T03:18:16;17.33;;;15.60;;
8397;SDS011;4236;54.504;9.588;2022-08-21T03:20:44;22.40;;;18.27;;
8397;SDS011;4236;54.504;9.588;2022-08-21T03:23:14;17.80;;;15.40;;
8397;SDS011;4236;54.504;9.588;2022-08-21T03:25:44;20.47;;;17.90;;
8397;SDS011;4236;54.504;9.588;2022-08-21T03:28:14;18.30;;;16.20;;
8397;SDS011;4236;54.504;9.588;2022-08-21T03:30:44;19.60;;;17.60;;
8397;SDS011;4236;54.504;9.588;2022-08-21T03:33:13;19.73;;;16.63;;
8397;SDS011;4236;54.504;9.588;2022-08-21T03:35:41;23.33;;;18.60;;
8397;SDS011;4236;54.504;9.588;2022-08-21T03:38:10;26.53;;;17.50;;
8397;SDS011;4236;54.504;9.588;2022-08-21T03:40:41;18.37;;;16.47;;
8397;SDS011;4236;54.504;9.588;2022-08-21T03:43:09;23.17;;;19.03;;
8397;SDS011;4236;54.504;9.588;2022-08-21T03:45:37;19.10;;;17.30;;
8397;SDS011;4236;54.504;9.588;2022-08-21T03:48:06;21.43;;;18.70;;
8397;SDS011;4236;54.504;9.588;2022-08-21T03:50:37;24.27;;;18.50;;
8397;SDS011;4236;54.504;9.588;2022-08-21T03:53:06;23.63;;;18.03;;
8397;SDS011;4236;54.504;9.588;2022-08-21T03:55:44;19.87;;;17.87;;
8397;SDS011;4236;54.504;9.588;2022-08-21T03:58:14;20.97;;;18.40;;
8397;SDS011;4236;54.504;9.588;2022-08-21T04:00:43;25.67;;;19.27;;
8397;SDS011;4236;54.504;9.588;2022-08-21T04:03:11;19.30;;;17.53;;
8397;SDS011;4236;54.504;9.588;2022-08-21T04:05:39;24.27;;;19.50;;
8397;SDS011;4236;54.504;9.588;2022-08-21T04:08:07;21.93;;;18.87;;
8397;SDS011;4236;54.504;9.588;2022-08-21T04:10:36;22.90;;;19.33;;
8397;SDS011;4236;54.504;9.588;2022-08-21T04:13:07;20.90;;;17.60;;
8397;SDS011;4236;54.504;9.588;2022-08-21T04:15:35;26.13;;;19.37;;
8397;SDS011;4236;54.504;9.588;2022-08-21T04:18:03;20.13;;;16.13;;
8397;SDS011;4236;54.504;9.588;2022-08-21T04:20:32;18.87;;;16.50;;
8397;SDS011;4236;54.504;9.588;2022-08-21T04:23:00;21.23;;;18.93;;
8397;SDS011;4236;54.504;9.588;2022-08-21T04:25:28;22.57;;;18.90;;
8397;SDS011;4236;54.504;9.588;2022-08-21T04:27:55;24.30;;;18.90;;
8397;SDS011;4236;54.504;9.588;2022-08-21T04:30:24;21.27;;;18.50;;
8397;SDS011;4236;54.504;9.588;2022-08-21T04:32:54;19.30;;;17.30;;
8397;SDS011;4236;54.504;9.588;2022-08-21T04:35:24;21.07;;;16.50;;
8397;SDS011;4236;54.504;9.588;2022-08-21T04:37:53;23.83;;;19.80;;
8397;SDS011;4236;54.504;9.588;2022-08-21T04:40:20;18.97;;;16.97;;
8397;SDS011;4236;54.504;9.588;2022-08-21T04:42:51;20.33;;;18.23;;
8397;SDS011;4236;54.504;9.588;2022-08-21T04:45:23;19.73;;;17.50;;
8397;SDS011;4236;54.504;9.588;2022-08-21T04:47:54;21.83;;;19.57;;
8397;SDS011;4236;54.504;9.588;2022-08-21T04:50:26;25.57;;;17.57;;
8397;SDS011;4236;54.504;9.588;2022-08-21T04:52:56;22.40;;;19.23;;
8397;SDS011;4236;54.504;9.588;2022-08-21T04:55:25;27.00;;;18.90;;
8397;SDS011;4236;54.504;9.588;2022-08-21T04:57:54;19.67;;;17.57;;
8397;SDS011;4236;54.504;9.588;2022-08-21T05:00:23;20.27;;;18.00;;
8397;SDS011;4236;54.504;9.588;2022-08-21T05:02:52;20.87;;;17.13;;
8397;SDS011;4236;54.504;9.588;2022-08-21T05:05:25;20.90;;;17.17;;
8397;SDS011;4236;54.504;9.588;2022-08-21T05:07:55;22.23;;;16.30;;
8397;SDS011;4236;54.504;9.588;2022-08-21T05:10:24;16.50;;;15.10;;
8397;SDS011;4236;54.504;9.588;2022-08-21T05:12:52;16.90;;;15.20;;
8397;SDS011;4236;54.504;9.588;2022-08-21T05:15:20;16.40;;;15.00;;
8397;SDS011;4236;54.504;9.588;2022-08-21T05:17:49;17.23;;;14.27;;
8397;SDS011;4236;54.504;9.588;2022-08-21T05:20:26;11.50;;;10.50;;
8397;SDS011;4236;54.504;9.588;2022-08-21T05:22:53;13.60;;;12.50;;
8397;SDS011;4236;54.504;9.588;2022-08-21T05:25:21;12.87;;;11.77;;
8397;SDS011;4236;54.504;9.588;2022-08-21T05:27:49;11.90;;;11.00;;
8397;SDS011;4236;54.504;9.588;2022-08-21T05:30:18;11.93;;;10.93;;
8397;SDS011;4236;54.504;9.588;2022-08-21T05:32:46;9.97;;;9.17;;
8397;SDS011;4236;54.504;9.588;2022-08-21T05:35:15;11.00;;;10.00;;
8397;SDS011;4236;54.504;9.588;2022-08-21T05:37:43;10.57;;;9.67;;
8397;SDS011;4236;54.504;9.588;2022-08-21T05:40:11;9.40;;;8.50;;
8397;SDS011;4236;54.504;9.588;2022-08-21T05:42:48;10.37;;;9.57;;
8397;SDS011;4236;54.504;9.588;2022-08-21T05:45:20;9.53;;;8.77;;
8397;SDS011;4236;54.504;9.588;2022-08-21T05:48:08;8.40;;;7.57;;
8397;SDS011;4236;54.504;9.588;2022-08-21T05:50:38;8.47;;;7.73;;
8397;SDS011;4236;54.504;9.588;2022-08-21T05:53:06;9.53;;;8.70;;
8397;SDS011;4236;54.504;9.588;2022-08-21T05:55:35;7.00;;;6.40;;
8397;SDS011;4236;54.504;9.588;2022-08-21T05:58:10;11.40;;;8.53;;
8397;SDS011;4236;54.504;9.588;2022-08-21T06:00:38;8.00;;;7.00;;
8397;SDS011;4236;54.504;9.588;2022-08-21T06:03:09;7.50;;;7.03;;
8397;SDS011;4236;54.504;9.588;2022-08-21T06:05:39;7.47;;;6.73;;
8397;SDS011;4236;54.504;9.588;2022-08-21T06:08:07;7.80;;;5.90;;
8397;SDS011;4236;54.504;9.588;2022-08-21T06:10:34;7.37;;;6.60;;
8397;SDS011;4236;54.504;9.588;2022-08-21T06:13:02;7.73;;;5.80;;
8397;SDS011;4236;54.504;9.588;2022-08-21T06:15:30;5.13;;;4.63;;
8397;SDS011;4236;54.504;9.588;2022-08-21T06:17:58;5.57;;;5.07;;
8397;SDS011;4236;54.504;9.588;2022-08-21T06:20:26;6.20;;;5.70;;
8397;SDS011;4236;54.504;9.588;2022-08-21T06:22:55;7.57;;;4.40;;
8397;SDS011;4236;54.504;9.588;2022-08-21T06:25:24;5.87;;;5.37;;
8397;SDS011;4236;54.504;9.588;2022-08-21T06:27:52;8.70;;;5.60;;
8397;SDS011;4236;54.504;9.588;2022-08-21T06:30:20;4.60;;;4.20;;
8397;SDS011;4236;54.504;9.588;2022-08-21T06:32:47;4.67;;;4.27;;
8397;SDS011;4236;54.504;9.588;2022-08-21T06:35:15;6.30;;;4.40;;
8397;SDS011;4236;54.504;9.588;2022-08-21T06:37:42;4.83;;;4.20;;
8397;SDS011;4236;54.504;9.588;2022-08-21T06:40:12;8.97;;;3.67;;
8397;SDS011;4236;54.504;9.588;2022-08-21T06:42:39;5.03;;;4.50;;
8397;SDS011;4236;54.504;9.588;2022-08-21T06:45:08;4.20;;;3.77;;
8397;SDS011;4236;54.504;9.588;2022-08-21T06:47:36;4.50;;;4.00;;
8397;SDS011;4236;54.504;9.588;2022-08-21T06:50:04;5.57;;;3.70;;
8397;SDS011;4236;54.504;9.588;2022-08-21T06:52:34;5.47;;;4.60;;
8397;SDS011;4236;54.504;9.588;2022-08-21T06:55:02;4.67;;;4.13;;
8397;SDS011;4236;54.504;9.588;2022-08-21T06:57:33;4.38;;;3.95;;
8397;SDS011;4236;54.504;9.588;2022-08-21T07:00:02;5.22;;;3.28;;
8397;SDS011;4236;54.504;9.588;2022-08-21T07:02:31;4.10;;;3.73;;
8397;SDS011;4236;54.504;9.588;2022-08-21T07:05:00;3.30;;;3.00;;
8397;SDS011;4236;54.504;9.588;2022-08-21T07:07:43;3.50;;;3.20;;
8397;SDS011;4236;54.504;9.588;2022-08-21T07:10:11;4.53;;;3.87;;
8397;SDS011;4236;54.504;9.588;2022-08-21T07:12:49;7.10;;;3.78;;
8397;SDS011;4236;54.504;9.588;2022-08-21T07:15:27;5.03;;;3.30;;
8397;SDS011;4236;54.504;9.588;2022-08-21T07:17:56;2.93;;;2.73;;
8397;SDS011;4236;54.504;9.588;2022-08-21T07:20:24;3.85;;;3.53;;
8397;SDS011;4236;54.504;9.588;2022-08-21T07:22:53;3.80;;;3.50;;
8397;SDS011;4236;54.504;9.588;2022-08-21T07:25:21;3.80;;;2.80;;
8397;SDS011;4236;54.504;9.588;2022-08-21T07:27:50;4.40;;;3.03;;
8397;SDS011;4236;54.504;9.588;2022-08-21T07:30:18;3.40;;;3.20;;
8397;SDS011;4236;54.504;9.588;2022-08-21T07:32:46;3.83;;;3.10;;
8397;SDS011;4236;54.504;9.588;2022-08-21T07:35:15;3.30;;;2.90;;
8397;SDS011;4236;54.504;9.588;2022-08-21T07:37:43;3.97;;;2.90;;
8397;SDS011;4236;54.504;9.588;2022-08-21T07:40:11;3.93;;;2.80;;
8397;SDS011;4236;54.504;9.588;2022-08-21T07:42:39;4.87;;;3.03;;
8397;SDS011;4236;54.504;9.588;2022-08-21T07:45:10;3.83;;;2.77;;
8397;SDS011;4236;54.504;9.588;2022-08-21T07:47:38;4.53;;;3.37;;
8397;SDS011;4236;54.504;9.588;2022-08-21T07:50:08;7.97;;;3.90;;
8397;SDS011;4236;54.504;9.588;2022-08-21T07:52:37;3.30;;;3.00;;
8397;SDS011;4236;54.504;9.588;2022-08-21T07:55:05;9.40;;;3.70;;
8397;SDS011;4236;54.504;9.588;2022-08-21T07:57:33;4.27;;;3.60;;
8397;SDS011;4236;54.504;9.588;2022-08-21T08:00:01;3.13;;;2.80;;
8397;SDS011;4236;54.504;9.588;2022-08-21T08:02:32;3.67;;;3.33;;
8397;SDS011;4236;54.504;9.588;2022-08-21T08:05:00;4.17;;;3.87;;
8397;SDS011;4236;54.504;9.588;2022-08-21T08:07:28;4.80;;;3.80;;
8397;SDS011;4236;54.504;9.588;2022-08-21T08:09:56;4.33;;;3.90;;
8397;SDS011;4236;54.504;9.588;2022-08-21T08:12:24;5.90;;;4.80;;
8397;SDS011;4236;54.504;9.588;2022-08-21T08:14:55;6.70;;;4.17;;
8397;SDS011;4236;54.504;9.588;2022-08-21T08:17:23;4.80;;;3.60;;
8397;SDS011;4236;54.504;9.588;2022-08-21T08:19:53;5.47;;;4.43;;
8397;SDS011;4236;54.504;9.588;2022-08-21T08:22:22;7.33;;;4.53;;
8397;SDS011;4236;54.504;9.588;2022-08-21T08:24:51;4.10;;;3.57;;
8397;SDS011;4236;54.504;9.588;2022-08-21T08:27:20;9.13;;;4.90;;
8397;SDS011;4236;54.504;9.588;2022-08-21T08:29:49;4.30;;;3.90;;
8397;SDS011;4236;54.504;9.588;2022-08-21T08:32:17;4.23;;;3.83;;
8397;SDS011;4236;54.504;9.588;2022-08-21T08:34:45;4.90;;;4.00;;
8397;SDS011;4236;54.504;9.588;2022-08-21T08:37:16;5.40;;;4.40;;
8397;SDS011;4236;54.504;9.588;2022-08-21T08:39:46;4.73;;;4.07;;
8397;SDS011;4236;54.504;9.588;2022-08-21T08:42:18;4.30;;;3.90;;
8397;SDS011;4236;54.504;9.588;2022-08-21T08:45:00;4.73;;;4.20;;
8397;SDS011;4236;54.504;9.588;2022-08-21T08:47:32;4.30;;;4.00;;
8397;SDS011;4236;54.504;9.588;2022-08-21T08:50:06;4.20;;;3.80;;
8397;SDS011;4236;54.504;9.588;2022-08-21T08:52:41;3.97;;;3.67;;
8397;SDS011;4236;54.504;9.588;2022-08-21T08:55:15;6.13;;;4.13;;
8397;SDS011;4236;54.504;9.588;2022-08-21T08:57:52;6.70;;;3.83;;
8397;SDS011;4236;54.504;9.588;2022-08-21T09:00:22;3.73;;;3.40;;
8397;SDS011;4236;54.504;9.588;2022-08-21T09:02:51;5.63;;;4.33;;
8397;SDS011;4236;54.504;9.588;2022-08-21T09:05:22;5.23;;;4.70;;
8397;SDS011;4236;54.504;9.588;2022-08-21T09:08:05;5.90;;;4.83;;
8397;SDS011;4236;54.504;9.588;2022-08-21T09:10:48;4.73;;;3.93;;
8397;SDS011;4236;54.504;9.588;2022-08-21T09:13:24;5.40;;;5.00;;
8397;SDS011;4236;54.504;9.588;2022-08-21T09:16:05;6.87;;;4.47;;
8397;SDS011;4236;54.504;9.588;2022-08-21T09:18:40;6.23;;;4.20;;
8397;SDS011;4236;54.504;9.588;2022-08-21T09:21:22;7.63;;;4.10;;
8397;SDS011;4236;54.504;9.588;2022-08-21T09:23:57;9.17;;;4.80;;
8397;SDS011;4236;54.504;9.588;2022-08-21T09:26:29;10.10;;;4.67;;
8397;SDS011;4236;54.504;9.588;2022-08-21T09:29:05;4.80;;;4.23;;
8397;SDS011;4236;54.504;9.588;2022-08-21T09:31:38;6.70;;;4.37;;
8397;SDS011;4236;54.504;9.588;2022-08-21T09:34:06;4.63;;;3.60;;
8397;SDS011;4236;54.504;9.588;2022-08-21T09:36:38;4.30;;;4.00;;
8397;SDS011;4236;54.504;9.588;2022-08-21T09:39:09;5.17;;;4.30;;
8397;SDS011;4236;54.504;9.588;2022-08-21T09:41:39;10.90;;;4.73;;
8397;SDS011;4236;54.504;9.588;2022-08-21T09:44:07;4.83;;;4.17;;
8397;SDS011;4236;54.504;9.588;2022-08-21T09:46:35;6.90;;;4.30;;
8397;SDS011;4236;54.504;9.588;2022-08-21T09:49:03;3.90;;;3.60;;
8397;SDS011;4236;54.504;9.588;2022-08-21T09:51:40;4.67;;;4.20;;
8397;SDS011;4236;54.504;9.588;2022-08-21T09:54:20;5.60;;;4.70;;
8397;SDS011;4236;54.504;9.588;2022-08-21T09:56:55;5.70;;;3.87;;
8397;SDS011;4236;54.504;9.588;2022-08-21T09:59:41;5.67;;;4.20;;
8397;SDS011;4236;54.504;9.588;2022-08-21T10:02:21;6.80;;;4.17;;
8397;SDS011;4236;54.504;9.588;2022-08-21T10:04:52;7.17;;;5.00;;
8397;SDS011;4236;54.504;9.588;2022-08-21T10:07:21;5.60;;;4.27;;
8397;SDS011;4236;54.504;9.588;2022-08-21T10:09:59;4.07;;;3.67;;
8397;SDS011;4236;54.504;9.588;2022-08-21T10:12:35;4.57;;;3.40;;
8397;SDS011;4236;54.504;9.588;2022-08-21T10:15:13;5.77;;;3.43;;
8397;SDS011;4236;54.504;9.588;2022-08-21T10:17:50;4.33;;;4.00;;
8397;SDS011;4236;54.504;9.588;2022-08-21T10:20:27;3.40;;;3.10;;
8397;SDS011;4236;54.504;9.588;2022-08-21T10:23:02;3.73;;;3.43;;
8397;SDS011;4236;54.504;9.588;2022-08-21T10:25:56;4.93;;;3.07;;
8397;SDS011;4236;54.504;9.588;2022-08-21T10:28:40;3.33;;;3.03;;
8397;SDS011;4236;54.504;9.588;2022-08-21T10:31:18;4.13;;;3.43;;
8397;SDS011;4236;54.504;9.588;2022-08-21T10:33:56;6.20;;;3.83;;
8397;SDS011;4236;54.504;9.588;2022-08-21T10:36:39;3.50;;;3.20;;
8397;SDS011;4236;54.504;9.588;2022-08-21T10:39:15;4.33;;;3.10;;
8397;SDS011;4236;54.504;9.588;2022-08-21T10:42:14;3.53;;;3.10;;
8397;SDS011;4236;54.504;9.588;2022-08-21T10:44:57;2.63;;;2.43;;
8397;SDS011;4236;54.504;9.588;2022-08-21T10:47:39;3.00;;;2.80;;
8397;SDS011;4236;54.504;9.588;2022-08-21T10:50:13;3.13;;;2.93;;
8397;SDS011;4236;54.504;9.588;2022-08-21T10:52:52;5.33;;;2.70;;
8397;SDS011;4236;54.504;9.588;2022-08-21T10:55:31;4.80;;;2.97;;
8397;SDS011;4236;54.504;9.588;2022-08-21T10:58:04;3.17;;;2.77;;
8397;SDS011;4236;54.504;9.588;2022-08-21T11:00:40;3.30;;;3.00;;
8397;SDS011;4236;54.504;9.588;2022-08-21T11:03:13;3.33;;;3.13;;
8397;SDS011;4236;54.504;9.588;2022-08-21T11:05:46;3.67;;;3.27;;
8397;SDS011;4236;54.504;9.588;2022-08-21T11:08:18;3.07;;;2.87;;
8397;SDS011;4236;54.504;9.588;2022-08-21T11:10:51;3.37;;;3.00;;
8397;SDS011;4236;54.504;9.588;2022-08-21T11:13:29;3.00;;;2.90;;
8397;SDS011;4236;54.504;9.588;2022-08-21T11:16:05;2.90;;;2.70;;
8397;SDS011;4236;54.504;9.588;2022-08-21T11:18:42;3.07;;;2.87;;
8397;SDS011;4236;54.504;9.588;2022-08-21T11:21:20;3.00;;;2.80;;
8397;SDS011;4236;54.504;9.588;2022-08-21T11:23:57;4.07;;;2.40;;
8397;SDS011;4236;54.504;9.588;2022-08-21T11:26:32;3.50;;;2.90;;
8397;SDS011;4236;54.504;9.588;2022-08-21T11:29:08;5.10;;;3.20;;
8397;SDS011;4236;54.504;9.588;2022-08-21T11:31:44;4.57;;;3.00;;
8397;SDS011;4236;54.504;9.588;2022-08-21T11:34:23;6.67;;;3.13;;
8397;SDS011;4236;54.504;9.588;2022-08-21T11:37:08;3.60;;;3.30;;
8397;SDS011;4236;54.504;9.588;2022-08-21T11:39:47;5.50;;;3.47;;
8397;SDS011;4236;54.504;9.588;2022-08-21T11:42:26;11.90;;;3.60;;
8397;SDS011;4236;54.504;9.588;2022-08-21T11:45:08;3.60;;;3.27;;
8397;SDS011;4236;54.504;9.588;2022-08-21T11:47:48;8.50;;;3.97;;
8397;SDS011;4236;54.504;9.588;2022-08-21T11:50:23;4.77;;;2.93;;
8397;SDS011;4236;54.504;9.588;2022-08-21T11:53:02;3.50;;;3.27;;
8397;SDS011;4236;54.504;9.588;2022-08-21T11:55:36;3.43;;;3.13;;
8397;SDS011;4236;54.504;9.588;2022-08-21T11:58:09;3.20;;;2.90;;
8397;SDS011;4236;54.504;9.588;2022-08-21T12:00:43;4.70;;;2.73;;
8397;SDS011;4236;54.504;9.588;2022-08-21T12:03:17;4.53;;;3.40;;
8397;SDS011;4236;54.504;9.588;2022-08-21T12:05:52;3.83;;;2.77;;
8397;SDS011;4236;54.504;9.588;2022-08-21T12:08:31;13.43;;;3.40;;
8397;SDS011;4236;54.504;9.588;2022-08-21T12:11:03;3.70;;;3.37;;
8397;SDS011;4236;54.504;9.588;2022-08-21T12:13:34;8.40;;;3.63;;
8397;SDS011;4236;54.504;9.588;2022-08-21T12:16:14;7.43;;;2.77;;
8397;SDS011;4236;54.504;9.588;2022-08-21T12:19:02;2.87;;;2.57;;
8397;SDS011;4236;54.504;9.588;2022-08-21T12:21:31;4.93;;;3.23;;
8397;SDS011;4236;54.504;9.588;2022-08-21T12:24:01;3.63;;;2.53;;
8397;SDS011;4236;54.504;9.588;2022-08-21T12:26:32;3.63;;;3.33;;
8397;SDS011;4236;54.504;9.588;2022-08-21T12:29:12;6.27;;;3.40;;
8397;SDS011;4236;54.504;9.588;2022-08-21T12:31:54;5.80;;;3.13;;
8397;SDS011;4236;54.504;9.588;2022-08-21T12:34:34;3.77;;;3.00;;
8397;SDS011;4236;54.504;9.588;2022-08-21T12:37:05;6.03;;;3.13;;
8397;SDS011;4236;54.504;9.588;2022-08-21T12:39:38;7.53;;;3.30;;
8397;SDS011;4236;54.504;9.588;2022-08-21T12:42:15;11.80;;;3.67;;
8397;SDS011;4236;54.504;9.588;2022-08-21T12:44:45;12.53;;;4.70;;
8397;SDS011;4236;54.504;9.588;2022-08-21T12:47:21;3.43;;;3.13;;
8397;SDS011;4236;54.504;9.588;2022-08-21T12:49:56;8.80;;;3.87;;
8397;SDS011;4236;54.504;9.588;2022-08-21T12:52:30;5.03;;;3.53;;
8397;SDS011;4236;54.504;9.588;2022-08-21T12:55:05;13.47;;;4.50;;
8397;SDS011;4236;54.504;9.588;2022-08-21T12:57:35;10.43;;;3.50;;
8397;SDS011;4236;54.504;9.588;2022-08-21T13:00:06;4.97;;;3.40;;
8397;SDS011;4236;54.504;9.588;2022-08-21T13:02:43;3.80;;;3.53;;
8397;SDS011;4236;54.504;9.588;2022-08-21T13:05:15;6.40;;;4.00;;
8397;SDS011;4236;54.504;9.588;2022-08-21T13:07:47;5.87;;;3.30;;
8397;SDS011;4236;54.504;9.588;2022-08-21T13:10:16;6.30;;;4.10;;
8397;SDS011;4236;54.504;9.588;2022-08-21T13:12:47;8.27;;;4.70;;
8397;SDS011;4236;54.504;9.588;2022-08-21T13:15:21;4.53;;;3.90;;
8397;SDS011;4236;54.504;9.588;2022-08-21T13:18:00;10.13;;;4.10;;
8397;SDS011;4236;54.504;9.588;2022-08-21T13:20:33;8.90;;;5.00;;
8397;SDS011;4236;54.504;9.588;2022-08-21T13:23:06;10.13;;;4.80;;
8397;SDS011;4236;54.504;9.588;2022-08-21T13:25:50;9.47;;;4.90;;
8397;SDS011;4236;54.504;9.588;2022-08-21T13:28:17;12.70;;;4.63;;
8397;SDS011;4236;54.504;9.588;2022-08-21T13:30:46;12.87;;;5.27;;
8397;SDS011;4236;54.504;9.588;2022-08-21T13:33:17;7.83;;;4.53;;
8397;SDS011;4236;54.504;9.588;2022-08-21T13:35:48;8.03;;;4.40;;
8397;SDS011;4236;54.504;9.588;2022-08-21T13:38:18;7.90;;;4.73;;
8397;SDS011;4236;54.504;9.588;2022-08-21T13:40:54;9.77;;;4.83;;
8397;SDS011;4236;54.504;9.588;2022-08-21T13:43:25;10.20;;;5.17;;
8397;SDS011;4236;54.504;9.588;2022-08-21T13:45:54;7.13;;;3.90;;
8397;SDS011;4236;54.504;9.588;2022-08-21T13:48:25;5.80;;;4.83;;
8397;SDS011;4236;54.504;9.588;2022-08-21T13:50:57;16.43;;;6.70;;
8397;SDS011;4236;54.504;9.588;2022-08-21T13:53:27;6.20;;;4.77;;
8397;SDS011;4236;54.504;9.588;2022-08-21T13:55:58;8.67;;;5.20;;
8397;SDS011;4236;54.504;9.588;2022-08-21T13:58:28;9.13;;;5.47;;
8397;SDS011;4236;54.504;9.588;2022-08-21T14:00:57;13.17;;;5.33;;
8397;SDS011;4236;54.504;9.588;2022-08-21T14:03:34;5.43;;;4.70;;
8397;SDS011;4236;54.504;9.588;2022-08-21T14:06:10;13.70;;;5.20;;
8397;SDS011;4236;54.504;9.588;2022-08-21T14:08:40;7.80;;;4.80;;
8397;SDS011;4236;54.504;9.588;2022-08-21T14:11:09;10.37;;;5.20;;
8397;SDS011;4236;54.504;9.588;2022-08-21T14:13:40;9.30;;;4.53;;
8397;SDS011;4236;54.504;9.588;2022-08-21T14:16:12;10.53;;;5.13;;
8397;SDS011;4236;54.504;9.588;2022-08-21T14:18:47;9.60;;;5.10;;
8397;SDS011;4236;54.504;9.588;2022-08-21T14:24:10;11.87;;;5.23;;
8397;SDS011;4236;54.504;9.588;2022-08-21T14:26:44;7.47;;;4.90;;
8397;SDS011;4236;54.504;9.588;2022-08-21T14:29:16;9.60;;;4.70;;
8397;SDS011;4236;54.504;9.588;2022-08-21T14:31:50;8.00;;;4.50;;
8397;SDS011;4236;54.504;9.588;2022-08-21T14:34:21;9.87;;;4.73;;
8397;SDS011;4236;54.504;9.588;2022-08-21T14:36:49;9.00;;;4.57;;
8397;SDS011;4236;54.504;9.588;2022-08-21T14:39:18;8.73;;;5.50;;
8397;SDS011;4236;54.504;9.588;2022-08-21T14:41:46;6.40;;;4.37;;
8397;SDS011;4236;54.504;9.588;2022-08-21T14:44:15;8.07;;;5.10;;
8397;SDS011;4236;54.504;9.588;2022-08-21T14:46:45;12.53;;;4.70;;
8397;SDS011;4236;54.504;9.588;2022-08-21T14:49:22;7.00;;;4.73;;
8397;SDS011;4236;54.504;9.588;2022-08-21T14:51:52;5.93;;;4.57;;
8397;SDS011;4236;54.504;9.588;2022-08-21T14:54:23;7.73;;;4.60;;
8397;SDS011;4236;54.504;9.588;2022-08-21T14:56:57;5.03;;;4.30;;
8397;SDS011;4236;54.504;9.588;2022-08-21T14:59:26;5.30;;;4.30;;
8397;SDS011;4236;54.504;9.588;2022-08-21T15:01:53;7.27;;;3.73;;
8397;SDS011;4236;54.504;9.588;2022-08-21T15:04:23;6.20;;;4.47;;
8397;SDS011;4236;54.504;9.588;2022-08-21T15:06:51;6.40;;;3.77;;
8397;SDS011;4236;54.504;9.588;2022-08-21T15:09:19;7.27;;;4.47;;
8397;SDS011;4236;54.504;9.588;2022-08-21T15:11:47;6.30;;;5.00;;
8397;SDS011;4236;54.504;9.588;2022-08-21T15:14:20;7.13;;;3.70;;
8397;SDS011;4236;54.504;9.588;2022-08-21T15:16:51;3.73;;;3.17;;
8397;SDS011;4236;54.504;9.588;2022-08-21T15:19:19;8.97;;;4.40;;
8397;SDS011;4236;54.504;9.588;2022-08-21T15:21:48;6.60;;;4.00;;
8397;SDS011;4236;54.504;9.588;2022-08-21T15:24:16;10.53;;;3.97;;
8397;SDS011;4236;54.504;9.588;2022-08-21T15:26:43;6.43;;;4.30;;
8397;SDS011;4236;54.504;9.588;2022-08-21T15:29:12;6.60;;;3.93;;
8397;SDS011;4236;54.504;9.588;2022-08-21T15:31:52;7.00;;;3.70;;
8397;SDS011;4236;54.504;9.588;2022-08-21T15:34:22;9.10;;;4.40;;